createdAt,value
2023-04-01T00:02:22.412Z,98900.47
2023-04-01T00:05:22.374Z,98885.59
2023-04-01T00:08:22.345Z,98894.84
2023-04-01T00:11:22.342Z,98892.22
2023-04-01T00:14:22.365Z,98892.00
2023-04-01T00:17:22.342Z,98890.34
2023-04-01T00:20:22.389Z,98887.03
2023-04-01T00:23:22.349Z,98848.00
2023-04-01T00:26:22.641Z,98873.16
2023-04-01T00:29:22.393Z,98878.81
2023-04-01T00:32:22.546Z,98875.78
2023-04-01T00:35:22.353Z,98866.41
2023-04-01T00:38:22.340Z,98865.63
2023-04-01T00:41:23.391Z,98869.19
2023-04-01T00:44:31.385Z,98863.97
2023-04-01T00:47:31.342Z,98859.28
2023-04-01T00:50:31.380Z,98866.97
2023-04-01T00:53:32.342Z,98858.44
2023-04-01T00:56:36.338Z,98859.56
2023-04-01T00:59:45.366Z,98855.28
2023-04-01T01:02:46.489Z,98847.16
2023-04-01T01:06:00.368Z,98848.16
2023-04-01T01:09:03.338Z,98846.22
2023-04-01T01:12:09.341Z,98846.22
2023-04-01T01:15:28.356Z,98832.34
2023-04-01T01:18:41.341Z,98828.75
2023-04-01T01:22:08.376Z,98845.53
2023-04-01T01:25:14.366Z,98841.94
2023-04-01T01:28:30.393Z,98842.09
2023-04-01T01:31:52.381Z,98817.50
2023-04-01T01:35:00.353Z,98833.03
2023-04-01T01:38:01.342Z,98801.03
2023-04-01T01:41:05.379Z,98822.44
2023-04-01T01:44:06.343Z,98790.41
2023-04-01T01:47:06.393Z,98821.13
2023-04-01T01:50:07.378Z,98836.25
2023-04-01T01:53:15.348Z,98831.59
2023-04-01T01:56:15.382Z,98850.56
2023-04-01T01:59:18.351Z,98842.19
2023-04-01T02:02:18.371Z,98836.97
2023-04-01T02:05:19.367Z,98835.47
2023-04-01T02:08:29.386Z,98839.59
2023-04-01T02:11:31.404Z,98837.97
2023-04-01T02:14:32.393Z,98820.50
2023-04-01T02:17:34.402Z,98806.88
2023-04-01T02:20:36.342Z,98845.91
2023-04-01T02:23:36.344Z,98830.53
2023-04-01T02:26:36.351Z,98835.22
2023-04-01T02:29:38.376Z,98842.37
2023-04-01T02:32:38.391Z,98833.72
2023-04-01T02:35:38.386Z,98842.66
2023-04-01T02:38:38.398Z,98819.41
2023-04-01T02:41:38.353Z,98847.44
2023-04-01T02:44:38.378Z,98837.41
2023-04-01T02:47:38.437Z,98837.69
2023-04-01T02:50:38.406Z,98843.63
2023-04-01T02:53:38.348Z,98834.78
2023-04-01T02:56:38.398Z,98834.94
2023-04-01T02:59:38.370Z,98841.13
2023-04-01T03:02:38.439Z,98841.25
2023-04-01T03:05:38.392Z,98846.75
2023-04-01T03:08:38.341Z,98845.41
2023-04-01T03:11:38.367Z,98830.25
2023-04-01T03:14:38.337Z,98837.69
2023-04-01T03:17:38.451Z,98831.78
2023-04-01T03:20:38.413Z,98831.22
2023-04-01T03:23:38.353Z,98839.22
2023-04-01T03:26:38.347Z,98836.59
2023-04-01T03:29:38.382Z,98841.81
2023-04-01T03:32:39.416Z,98846.38
2023-04-01T03:35:39.340Z,98842.94
2023-04-01T03:38:39.383Z,98842.37
2023-04-01T03:41:39.372Z,98844.03
2023-04-01T03:44:39.369Z,98839.62
2023-04-01T03:47:39.378Z,98845.81
2023-04-01T03:50:39.350Z,98851.84
2023-04-01T03:53:39.384Z,98846.06
2023-04-01T03:56:39.378Z,98839.62
2023-04-01T03:59:39.337Z,98825.06
2023-04-01T04:02:39.390Z,98837.66
2023-04-01T04:05:40.347Z,98833.13
2023-04-01T04:08:40.351Z,98841.38
2023-04-01T04:11:40.397Z,98833.25
2023-04-01T04:14:40.366Z,98831.56
2023-04-01T04:17:40.464Z,98834.03
2023-04-01T04:20:40.342Z,98834.13
2023-04-01T04:23:41.386Z,98828.75
2023-04-01T04:26:41.377Z,98832.63
2023-04-01T04:29:41.379Z,98826.78
2023-04-01T04:32:41.360Z,98838.78
2023-04-01T04:35:41.372Z,98843.84
2023-04-01T04:38:41.342Z,98842.44
2023-04-01T04:41:41.363Z,98851.50
2023-04-01T04:44:41.372Z,98844.63
2023-04-01T04:47:41.390Z,98839.94
2023-04-01T04:50:41.379Z,98854.12
2023-04-01T04:53:41.359Z,98850.94
2023-04-01T04:56:41.382Z,98857.50
2023-04-01T04:59:41.415Z,98862.72
2023-04-01T05:02:42.419Z,98871.13
2023-04-01T05:05:42.372Z,98874.56
2023-04-01T05:08:42.402Z,98869.06
2023-04-01T05:11:42.340Z,98873.47
2023-04-01T05:14:42.327Z,98876.09
2023-04-01T05:17:35.400Z,98872.03
2023-04-01T05:20:23.346Z,98875.47
2023-04-01T05:23:23.366Z,98865.19
2023-04-01T05:26:26.342Z,98842.13
2023-04-01T05:29:26.340Z,98851.38
2023-04-01T05:32:26.383Z,98867.88
2023-04-01T05:35:27.393Z,98868.75
2023-04-01T05:38:20.348Z,98873.69
2023-04-01T05:41:13.355Z,98870.44
2023-04-01T05:44:13.355Z,98863.28
2023-04-01T05:47:19.322Z,98874.28
2023-04-01T05:50:19.336Z,98851.84
2023-04-01T05:53:19.326Z,98870.44
2023-04-01T05:56:19.363Z,98872.34
2023-04-01T05:59:20.385Z,98842.50
2023-04-01T06:02:20.431Z,98869.84
2023-04-01T06:05:33.553Z,98862.56
2023-04-01T06:08:33.368Z,98864.19
2023-04-01T06:11:48.338Z,98873.53
2023-04-01T06:15:24.429Z,98881.78
2023-04-01T06:19:06.380Z,98867.47
2023-04-01T06:22:30.348Z,98868.97
2023-04-01T06:26:00.345Z,98865.37
2023-04-01T06:29:20.371Z,98863.47
2023-04-01T06:32:51.413Z,98861.53
2023-04-01T06:36:06.460Z,98863.28
2023-04-01T06:39:18.335Z,98857.59
2023-04-01T06:43:04.385Z,98856.94
2023-04-01T06:46:15.404Z,98859.38
2023-04-01T06:49:48.371Z,98867.56
2023-04-01T06:53:20.369Z,98857.94
2023-04-01T06:56:34.348Z,98853.97
2023-04-01T06:59:37.402Z,98850.69
2023-04-01T07:02:48.386Z,98846.53
2023-04-01T07:05:49.396Z,98851.78
2023-04-01T07:08:52.364Z,98855.53
2023-04-01T07:11:53.358Z,98865.13
2023-04-01T07:14:58.344Z,98856.28
2023-04-01T07:17:58.399Z,98856.66
2023-04-01T07:20:59.377Z,98828.53
2023-04-01T07:24:00.361Z,98854.84
2023-04-01T07:27:00.383Z,98861.81
2023-04-01T07:30:01.355Z,98862.56
2023-04-01T07:33:19.371Z,98860.97
2023-04-01T07:36:37.349Z,98860.09
2023-04-01T07:39:56.363Z,98854.31
2023-04-01T07:43:20.433Z,98862.56
2023-04-01T07:46:38.425Z,98870.34
2023-04-01T07:49:47.325Z,98867.38
2023-04-01T07:53:07.362Z,98866.13
2023-04-01T07:56:27.341Z,98870.06
2023-04-01T07:59:45.352Z,98865.28
2023-04-01T08:03:07.409Z,98858.56
2023-04-01T08:06:39.357Z,98863.63
2023-04-01T08:09:58.333Z,98857.03
2023-04-01T08:13:07.350Z,98860.63
2023-04-01T08:16:19.408Z,98856.41
2023-04-01T08:19:36.357Z,98856.16
2023-04-01T08:22:49.374Z,98853.72
2023-04-01T08:25:53.342Z,98858.47
2023-04-01T08:29:01.376Z,98850.44
2023-04-01T08:32:15.391Z,98857.63
2023-04-01T08:35:24.374Z,98858.16
2023-04-01T08:38:35.400Z,98854.50
2023-04-01T08:41:57.384Z,98847.44
2023-04-01T08:45:30.503Z,98856.53
2023-04-01T08:48:48.340Z,98853.50
2023-04-01T08:52:07.361Z,98860.91
2023-04-01T08:55:28.367Z,98858.59
2023-04-01T08:58:37.383Z,98863.88
2023-04-01T09:01:56.410Z,98856.16
2023-04-01T09:05:20.374Z,98854.50
2023-04-01T09:08:38.357Z,98851.06
2023-04-01T09:12:12.399Z,98846.12
2023-04-01T09:15:49.499Z,98847.34
2023-04-01T09:18:56.361Z,98841.78
2023-04-01T09:21:56.360Z,98845.88
2023-04-01T09:25:36.381Z,98844.41
2023-04-01T09:28:53.402Z,98846.12
2023-04-01T09:32:05.380Z,98825.81
2023-04-01T09:35:08.374Z,98844.50
2023-04-01T09:38:08.380Z,98840.69
2023-04-01T09:41:42.362Z,98836.56
2023-04-01T09:44:49.392Z,98839.56
2023-04-01T09:48:04.377Z,98835.97
2023-04-01T09:51:25.418Z,98828.03
2023-04-01T09:54:36.404Z,98828.34
2023-04-01T09:57:48.408Z,98824.81
2023-04-01T10:01:13.447Z,98824.88
2023-04-01T10:04:52.382Z,98826.09
2023-04-01T10:08:24.470Z,98819.19
2023-04-01T10:11:42.382Z,98828.41
2023-04-01T10:14:56.400Z,98819.91
2023-04-01T10:18:08.440Z,98820.50
2023-04-01T10:21:36.428Z,98813.00
2023-04-01T10:24:54.439Z,98807.50
2023-04-01T10:28:16.418Z,98811.31
2023-04-01T10:31:55.480Z,98811.44
2023-04-01T10:35:36.626Z,98807.50
2023-04-01T10:39:10.453Z,98812.31
2023-04-01T10:42:28.401Z,98804.63
2023-04-01T10:45:58.382Z,98815.88
2023-04-01T10:49:17.423Z,98820.34
2023-04-01T10:52:30.415Z,98819.81
2023-04-01T10:55:52.397Z,98813.59
2023-04-01T10:59:16.452Z,98814.03
2023-04-01T11:02:50.445Z,98812.19
2023-04-01T11:06:11.397Z,98804.81
2023-04-01T11:09:17.422Z,98805.34
2023-04-01T11:12:38.390Z,98802.09
2023-04-01T11:15:49.456Z,98803.34
2023-04-01T11:19:14.376Z,98806.06
2023-04-01T11:22:40.392Z,98800.78
2023-04-01T11:25:59.392Z,98805.88
2023-04-01T11:29:49.787Z,98789.97
2023-04-01T11:32:57.510Z,98792.72
2023-04-01T11:36:15.473Z,98793.75
2023-04-01T11:39:34.448Z,98794.63
2023-04-01T11:43:04.432Z,98797.00
2023-04-01T11:46:25.405Z,98803.09
2023-04-01T11:49:58.402Z,98790.03
2023-04-01T11:53:02.436Z,98783.88
2023-04-01T11:56:16.428Z,98797.81
2023-04-01T11:59:16.443Z,98792.88
2023-04-01T12:02:45.453Z,98791.53
2023-04-01T12:05:49.397Z,98790.22
2023-04-01T12:09:04.424Z,98791.81
2023-04-01T12:12:22.472Z,98788.19
2023-04-01T12:15:34.667Z,98795.09
2023-04-01T12:18:48.426Z,98789.84
2023-04-01T12:21:53.409Z,98784.44
2023-04-01T12:25:19.465Z,98786.59
2023-04-01T12:28:39.397Z,98790.16
2023-04-01T12:32:00.534Z,98757.19
2023-04-01T12:35:08.407Z,98793.75
2023-04-01T12:38:45.468Z,98788.84
2023-04-01T12:42:07.439Z,98791.97
2023-04-01T12:45:49.673Z,98788.28
2023-04-01T12:49:14.443Z,98797.28
2023-04-01T12:52:24.452Z,98789.47
2023-04-01T12:55:36.404Z,98794.41
2023-04-01T12:59:03.457Z,98793.12
2023-04-01T13:02:16.421Z,98786.63
2023-04-01T13:05:53.408Z,98782.53
2023-04-01T13:09:02.414Z,98786.25
2023-04-01T13:12:10.434Z,98787.38
2023-04-01T13:15:27.562Z,98787.63
2023-04-01T13:18:50.426Z,98785.50
2023-04-01T13:22:05.434Z,98785.25
2023-04-01T13:25:17.456Z,98790.94
2023-04-01T13:28:24.446Z,98791.28
2023-04-01T13:32:18.474Z,98791.16
2023-04-01T13:35:30.454Z,98784.72
2023-04-01T13:38:55.429Z,98789.44
2023-04-01T13:42:07.450Z,98791.91
2023-04-01T13:45:19.458Z,98796.97
2023-04-01T13:48:48.433Z,98795.25
2023-04-01T13:52:10.427Z,98797.78
2023-04-01T13:55:28.440Z,98796.94
2023-04-01T13:59:03.463Z,98795.69
2023-04-01T14:02:15.462Z,98799.25
2023-04-01T14:05:41.919Z,98804.00
2023-04-01T14:09:00.451Z,98798.38
2023-04-01T14:12:19.456Z,98802.56
2023-04-01T14:15:27.485Z,98804.94
2023-04-01T14:18:33.465Z,98803.84
2023-04-01T14:21:52.477Z,98800.31
2023-04-01T14:25:01.422Z,98799.88
2023-04-01T14:28:38.482Z,98809.66
2023-04-01T14:32:15.443Z,98808.12
2023-04-01T14:35:33.572Z,98811.59
2023-04-01T14:38:57.421Z,98815.22
2023-04-01T14:42:11.855Z,98813.59
2023-04-01T14:45:57.480Z,98807.84
2023-04-01T14:49:16.485Z,98811.75
2023-04-01T14:52:43.416Z,98811.47
2023-04-01T14:55:51.470Z,98825.41
2023-04-01T14:59:04.477Z,98816.47
2023-04-01T15:02:25.524Z,98809.19
2023-04-01T15:05:59.437Z,98818.13
2023-04-01T15:09:09.477Z,98817.41
2023-04-01T15:12:18.485Z,98804.37
2023-04-01T15:15:24.442Z,98822.06
2023-04-01T15:18:55.477Z,98821.50
2023-04-01T15:22:21.512Z,98823.78
2023-04-01T15:25:56.433Z,98814.69
2023-04-01T15:29:11.451Z,98827.97
2023-04-01T15:32:16.484Z,98826.87
2023-04-01T15:35:34.728Z,98819.69
2023-04-01T15:39:02.463Z,98819.31
2023-04-01T15:42:08.470Z,98825.28
2023-04-01T15:45:34.712Z,98826.53
2023-04-01T15:49:11.471Z,98818.94
2023-04-01T15:52:39.434Z,98830.47
2023-04-01T15:56:12.483Z,98835.53
2023-04-01T15:59:24.504Z,98838.94
2023-04-01T16:02:37.559Z,98834.28
2023-04-01T16:06:09.509Z,98840.94
2023-04-01T16:09:27.455Z,98840.50
2023-04-01T16:12:48.496Z,98836.78
2023-04-01T16:16:06.474Z,98834.56
2023-04-01T16:19:36.481Z,98846.31
2023-04-01T16:22:55.450Z,98850.47
2023-04-01T16:25:58.495Z,98852.97
2023-04-01T16:29:26.484Z,98851.88
2023-04-01T16:33:04.540Z,98855.84
2023-04-01T16:36:24.449Z,98863.75
2023-04-01T16:39:48.461Z,98862.28
2023-04-01T16:43:07.474Z,98873.97
2023-04-01T16:46:13.568Z,98872.31
2023-04-01T16:49:25.477Z,98880.50
2023-04-01T16:52:25.457Z,98874.72
2023-04-01T16:55:35.447Z,98880.81
2023-04-01T16:58:38.474Z,98876.81
2023-04-01T17:02:19.484Z,98886.84
2023-04-01T17:05:28.479Z,98884.69
2023-04-01T17:08:42.478Z,98895.81
2023-04-01T17:12:04.452Z,98901.38
2023-04-01T17:15:19.881Z,98904.28
2023-04-01T17:18:28.479Z,98903.84
2023-04-01T17:21:31.492Z,98903.16
2023-04-01T17:25:11.492Z,98911.66
2023-04-01T17:28:24.464Z,98911.31
2023-04-01T17:31:42.484Z,98905.69
2023-04-01T17:34:52.463Z,98918.84
2023-04-01T17:38:13.507Z,98920.63
2023-04-01T17:41:22.498Z,98917.16
2023-04-01T17:44:46.459Z,98914.41
2023-04-01T17:47:52.579Z,98921.97
2023-04-01T17:51:17.511Z,98925.94
2023-04-01T17:54:32.480Z,98927.28
2023-04-01T17:57:50.496Z,98936.66
2023-04-01T18:01:15.490Z,98940.91
2023-04-01T18:04:25.475Z,98946.00
2023-04-01T18:07:46.496Z,98945.19
2023-04-01T18:11:14.521Z,98949.47
2023-04-01T18:14:46.464Z,98952.09
2023-04-01T18:18:04.585Z,98951.94
2023-04-01T18:21:37.483Z,98956.34
2023-04-01T18:24:43.474Z,98961.28
2023-04-01T18:27:52.466Z,98954.47
2023-04-01T18:30:53.476Z,98963.91
2023-04-01T18:34:14.489Z,98972.94
2023-04-01T18:37:30.470Z,98973.72
2023-04-01T18:40:36.736Z,98974.97
2023-04-01T18:43:55.473Z,98980.94
2023-04-01T18:47:21.474Z,98986.63
2023-04-01T18:50:37.505Z,98987.75
2023-04-01T18:54:06.470Z,98985.13
2023-04-01T18:57:15.518Z,98982.97
2023-04-01T19:00:52.591Z,98992.41
2023-04-01T19:03:58.602Z,98994.66
2023-04-01T19:07:04.496Z,98993.31
2023-04-01T19:10:04.493Z,98979.31
2023-04-01T19:13:42.453Z,98987.53
2023-04-01T19:17:04.478Z,98988.81
2023-04-01T19:20:18.456Z,98990.41
2023-04-01T19:23:39.508Z,99000.84
2023-04-01T19:26:48.494Z,98993.84
2023-04-01T19:30:13.465Z,99001.09
2023-04-01T19:33:28.503Z,99003.56
2023-04-01T19:36:54.455Z,99006.69
2023-04-01T19:39:57.450Z,99018.50
2023-04-01T19:42:57.467Z,99012.75
2023-04-01T19:46:06.526Z,99012.63
2023-04-01T19:49:24.475Z,99018.31
2023-04-01T19:52:38.490Z,99011.88
2023-04-01T19:56:02.501Z,99020.84
2023-04-01T19:59:19.451Z,99027.19
2023-04-01T20:02:23.496Z,98998.56
2023-04-01T20:05:49.454Z,99037.41
2023-04-01T20:09:04.525Z,99034.13
2023-04-01T20:12:26.487Z,99029.59
2023-04-01T20:15:44.548Z,99041.03
2023-04-01T20:19:01.499Z,99035.81
2023-04-01T20:22:01.482Z,99035.00
2023-04-01T20:25:01.468Z,99031.53
2023-04-01T20:28:25.477Z,99027.16
2023-04-01T20:31:40.483Z,99046.16
2023-04-01T20:35:14.522Z,99043.28
2023-04-01T20:38:29.459Z,99053.72
2023-04-01T20:41:42.515Z,99056.06
2023-04-01T20:44:57.441Z,99049.84
2023-04-01T20:48:03.547Z,99023.25
2023-04-01T20:51:12.491Z,99058.88
2023-04-01T20:54:15.506Z,99064.25
2023-04-01T20:57:27.543Z,99062.87
2023-04-01T21:00:37.513Z,99063.16
2023-04-01T21:03:49.470Z,99063.53
2023-04-01T21:07:12.523Z,99066.56
2023-04-01T21:10:25.476Z,99074.66
2023-04-01T21:13:44.472Z,99080.31
2023-04-01T21:17:06.502Z,99076.44
2023-04-01T21:20:28.491Z,99090.97
2023-04-01T21:23:49.485Z,99088.88
2023-04-01T21:26:55.518Z,99090.22
2023-04-01T21:30:29.458Z,99099.66
2023-04-01T21:34:00.484Z,99097.44
2023-04-01T21:37:02.508Z,99100.47
2023-04-01T21:40:29.515Z,99094.00
2023-04-01T21:43:47.513Z,99097.31
2023-04-01T21:47:02.471Z,99108.72
2023-04-01T21:50:41.480Z,99111.78
2023-04-01T21:53:47.471Z,99104.19
2023-04-01T21:57:02.529Z,99102.00
2023-04-01T22:00:23.512Z,99094.19
2023-04-01T22:04:14.546Z,99104.03
2023-04-01T22:07:32.453Z,99095.78
2023-04-01T22:11:06.517Z,99096.19
2023-04-01T22:14:27.532Z,99095.75
2023-04-01T22:17:40.534Z,99094.84
2023-04-01T22:21:14.474Z,99107.38
2023-04-01T22:24:14.489Z,99108.81
2023-04-01T22:27:35.449Z,99116.31
2023-04-01T22:30:38.477Z,99115.72
2023-04-01T22:34:15.495Z,99114.56
2023-04-01T22:37:18.515Z,99120.03
2023-04-01T22:40:18.511Z,99118.75
2023-04-01T22:43:25.466Z,99113.94
2023-04-01T22:47:04.470Z,99115.13
2023-04-01T22:50:11.482Z,99107.47
2023-04-01T22:53:15.541Z,99127.97
2023-04-01T22:56:19.481Z,99130.34
2023-04-01T22:59:29.498Z,99116.13
2023-04-01T23:02:33.536Z,99138.84
2023-04-01T23:05:34.773Z,99131.97
2023-04-01T23:08:55.494Z,99139.81
2023-04-01T23:12:05.504Z,99148.47
2023-04-01T23:15:13.499Z,99146.06
2023-04-01T23:18:42.501Z,99149.38
2023-04-01T23:21:57.508Z,99135.69
2023-04-01T23:25:32.757Z,99124.81
2023-04-01T23:28:57.479Z,99141.84
2023-04-01T23:31:59.498Z,99147.78
2023-04-01T23:35:07.496Z,99152.47
2023-04-01T23:38:07.489Z,99154.47
2023-04-01T23:41:09.476Z,99160.13
2023-04-01T23:44:21.497Z,99162.47
2023-04-01T23:47:23.493Z,99159.47
2023-04-01T23:50:36.464Z,99164.44
2023-04-01T23:53:40.459Z,99169.56
2023-04-01T23:57:08.523Z,99168.72
